Formel-1-Quiz
Formel-1-Gewinnspiel
ANZEIGE
ANZEIGE
Tests: Zeiten, Termine, Statistik

Exklusives "Testcenter"

Im "Testcenter" finden Sie Zeiten, Termine und unzählige Statistiken zu den Testfahrten in der Formel 1!
Zum Testcenter
Apps zu Formel 1, MotoGP, DTM und Co. für Android, iOS und Windows Phone

 GP Großbritannien in Silverstone / 1. Freies Training

Session-Informationen im Überblick
Datum 06. Juli 2012 Wetter Regen
Zeit (MESZ) 11:00-12:30 Uhr Lufttemp. 16-17°C
Ortszeit 10:00-11:30 Uhr Luftfeucht. 84-86%
Teilnehmer 24 Luftdruck 989 mBar
Rekord Rennen 1:30.874 Minuten Asphalt 17°C
Rekord Qualifying 1:29.615 Minuten Wind 0.7-2.3 m/s, Süden

Gefahrene Zeiten

Pos. Nr. Fahrer Team Zeit Abstand auf V. Rnd.
1 10 R. Grosjean Lotus 1:56.552     13
2 16 D. Ricciardo Toro Rosso 1:56.827 +0:00.275 +0:00.275 10
3 4 L. Hamilton McLaren 1:57.174 +0:00.622 +0:00.347 6
4 15 S. Perez Sauber 1:57.664 +0:01.112 +0:00.490 11
5 6 F. Massa Ferrari 1:58.119 +0:01.567 +0:00.455 7
6 2 M. Webber Red Bull 1:58.463 +0:01.911 +0:00.344 7
7 14 K. Kobayashi Sauber 1:58.483 +0:01.931 +0:00.020 19
8 7 M. Schumacher Mercedes 1:58.493 +0:01.941 +0:00.010 10
9 8 N. Rosberg Mercedes 1:58.942 +0:02.390 +0:00.449 8
10 17 J. Vergne Toro Rosso 1:59.076 +0:02.524 +0:00.134 12
11 1 S. Vettel Red Bull 1:59.414 +0:02.862 +0:00.338 11
12 21 W. Petrow Caterham 1:59.614 +0:03.062 +0:00.200 9
13 19 V. Bottas Williams 1:59.733 +0:03.181 +0:00.119 7
14 20 H. Kovalainen Caterham 1:59.787 +0:03.235 +0:00.054 10
15 18 P. Maldonado Williams 2:00.125 +0:03.573 +0:00.338 5
16 9 K. Räikkönen Lotus 2:00.253 +0:03.701 +0:00.128 6
17 3 J. Button McLaren 2:01.834 +0:05.282 +0:01.581 6
18 24 T. Glock Marussia 2:01.835 +0:05.283 +0:00.001 6
19 22 P. de la Rosa HRT 2:04.341 +0:07.789 +0:02.506 9
  107-Prozent-Zeit 2:04.710
20 23 D. Clos HRT 2:05.022 +0:08.470 +0:00.681 11
21 25 C. Pic Marussia 2:11.760 +0:15.208 +0:06.738 6
22 5 F. Alonso Ferrari -:--.--- -:--.--- -:--.--- 4
23 11 P. di Resta Force India -:--.--- -:--.--- -:--.--- 3
24 12 J. Bianchi Force India -:--.--- -:--.--- -:--.--- 1
auf V. = auf Vordermann, Rnd. = Runden

 

 
Nach oben